Aérodrome :
LOGIN :

S'inscrire | Disclaimer

   EN    FR    IT 

 










Légende :    VFR   VFR Marginal   IFR   IFR Intensif   IFR Très Intensif
Visi : 
Plafond : 
>= 8 km
>= 3000ft
5 à 8 km
1000 à 3000 ft
1500m à 5 km
500 à 1000 ft
800 à 1500m
200 à 500 ft
< 800m
< 200 ft
Symboles :   Orages  Brouillard  Fortes neiges  Fortes précipitations  Vent > 20 kt
SIGMETs :   Divers  Orages  Givrage  Turbulence  Onde Orograph.  Cendres Volcan.







- Altitude de l'aérodrome : 220 ft
- Code IATA : CWL
- Voir les cartes d'approche


EGFF - Cardiff Rhoose

DERNIER METAR :
  • 151420Z AUTO 05013KT 9999 BKN012 OVC017 12/10 Q1012

METARs EXPIRÉS :
  • 151350Z AUTO 05013KT 9999 OVC012 12/10 Q1012
  • 151320Z AUTO 05015KT 9999 OVC012 12/10 Q1012
  • 151250Z AUTO 05015KT 9999 OVC013 12/09 Q1012
  • 151220Z 05016KT 9999 SCT012 BKN034 12/09 Q1012
  • 151150Z AUTO 06016G26KT 9999 SCT011 BKN037 12/09 Q1011

TAF AMD TAF EGFF
Valide du 15 à 12h jusqu'au 16 à 12h UTC


151244Z 1512/1612 04014KT 9999 SCT030
BECMG 1512/1515 8000 BKN012
TEMPO 1512/1518 06017G27KT
TEMPO 1515/1521 -DZ BKN006
TEMPO 1521/1610 4000 -DZ BR
PROB30
TEMPO 1521/1610 1200 DZ BR BKN002
BECMG 1603/1606 10006KT
BECMG 1609/1612 26010KT 9999 SCT020
ATIS : +44 1446 729 319
Pas de NOTAMs connus pour ce terrain.
1 SIGMET publié pour la FIR London (EGTT) :
 
Turbulence forte
EGTT SIGMET 04 VALID 151149/151530 EGRR
EGTT LONDON FIR SEV TURB FCST W OF LINE N5500 W00332 - N4957 W00215 FL240/350 MOV E 20KT WKN=



MET'MAP, la Météo Aéronautique d'un coup d'oeil ! - Copyright ORBIFLY Décembre 2007 - Disclaimer

ORBIFLY MET'MAP TEAM :

Programmation & Développement : Alexandra Zaïnal
Conception & Développement : Baudouin d'Aumeries
Co-Programmation & Développement : Marc-Olivier Méhu
Soutien technique & logistique : Manuel Goepfert

Contact : metmap@orbifly.com




SOURCES & CREDITS :

   NOAA